createdAt,value
2022-10-13T00:01:09.704Z,7.20
2022-10-13T00:03:40.315Z,7.82
2022-10-13T00:06:11.049Z,8.07
2022-10-13T00:08:41.335Z,7.22
2022-10-13T00:11:14.820Z,6.97
2022-10-13T00:13:44.112Z,6.40
2022-10-13T00:16:15.200Z,7.35
2022-10-13T00:18:43.634Z,6.88
2022-10-13T00:21:15.527Z,7.00
2022-10-13T00:23:44.675Z,7.72
2022-10-13T00:26:15.339Z,7.32
2022-10-13T00:28:45.516Z,7.28
2022-10-13T00:31:18.640Z,7.57
2022-10-13T00:33:46.663Z,7.72
2022-10-13T00:36:14.427Z,6.88
2022-10-13T00:38:44.078Z,7.03
2022-10-13T00:41:12.369Z,7.20
2022-10-13T00:43:54.789Z,7.47
2022-10-13T00:46:23.783Z,7.32
2022-10-13T00:48:53.578Z,6.70
2022-10-13T00:51:27.214Z,6.88
2022-10-13T00:53:57.628Z,7.20
2022-10-13T00:56:28.809Z,6.80
2022-10-13T00:58:57.530Z,6.28
2022-10-13T01:01:25.475Z,6.82
2022-10-13T01:03:53.303Z,6.45
2022-10-13T01:06:23.712Z,6.75
2022-10-13T01:08:52.015Z,6.82
2022-10-13T01:11:56.200Z,6.55
2022-10-13T01:14:33.379Z,7.85
2022-10-13T01:17:12.681Z,6.35
2022-10-13T01:20:18.156Z,6.72
2022-10-13T01:23:01.383Z,6.13
2022-10-13T01:25:52.622Z,7.22
2022-10-13T01:28:51.792Z,6.60
2022-10-13T01:31:31.787Z,6.43
2022-10-13T01:34:09.878Z,6.22
2022-10-13T01:37:00.571Z,6.22
2022-10-13T01:39:41.187Z,6.60
2022-10-13T01:42:18.262Z,6.07
2022-10-13T01:44:52.597Z,6.25
2022-10-13T01:47:23.887Z,6.28
2022-10-13T01:49:54.059Z,6.68
2022-10-13T01:52:27.303Z,6.25
2022-10-13T01:54:55.875Z,6.00
2022-10-13T01:57:35.614Z,6.72
2022-10-13T02:00:08.631Z,6.50
2022-10-13T02:02:48.175Z,6.32
2022-10-13T02:05:27.504Z,5.88
2022-10-13T02:08:03.660Z,6.25
2022-10-13T02:10:42.744Z,6.13
2022-10-13T02:13:16.958Z,6.00
2022-10-13T02:15:50.287Z,6.30
2022-10-13T02:18:26.588Z,6.25
2022-10-13T02:20:56.156Z,6.05
2022-10-13T02:23:25.102Z,5.75
2022-10-13T02:25:52.909Z,6.03
2022-10-13T02:28:21.259Z,6.18
2022-10-13T02:30:49.058Z,6.38
2022-10-13T02:33:19.215Z,5.90
2022-10-13T02:35:46.988Z,6.03
2022-10-13T02:38:14.708Z,6.72
2022-10-13T02:40:42.479Z,6.80
2022-10-13T02:43:10.237Z,6.95
2022-10-13T02:45:38.006Z,6.53
2022-10-13T02:48:06.234Z,6.38
2022-10-13T02:50:35.801Z,6.13
2022-10-13T02:53:03.591Z,6.55
2022-10-13T02:55:31.399Z,6.40
2022-10-13T02:57:59.286Z,6.20
2022-10-13T03:00:27.344Z,6.03
2022-10-13T03:02:55.123Z,5.35
2022-10-13T03:05:22.856Z,5.88
2022-10-13T03:07:51.968Z,5.90
2022-10-13T03:10:19.726Z,5.97
2022-10-13T03:12:47.416Z,6.57
2022-10-13T03:15:15.253Z,6.15
2022-10-13T03:17:43.007Z,6.05
2022-10-13T03:20:11.568Z,6.43
2022-10-13T03:22:39.350Z,5.82
2022-10-13T03:25:09.804Z,6.30
2022-10-13T03:27:37.579Z,6.07
2022-10-13T03:30:06.491Z,6.00
2022-10-13T03:32:34.330Z,6.63
2022-10-13T03:35:02.150Z,6.15
2022-10-13T03:37:30.746Z,6.18
2022-10-13T03:39:58.620Z,6.15
2022-10-13T03:42:27.729Z,5.85
2022-10-13T03:44:56.637Z,6.05
2022-10-13T03:47:24.614Z,6.03
2022-10-13T03:49:55.090Z,5.78
2022-10-13T03:52:23.054Z,5.95
2022-10-13T03:54:51.044Z,5.88
2022-10-13T03:57:18.809Z,5.53
2022-10-13T03:59:47.943Z,6.25
2022-10-13T04:02:15.715Z,5.13
2022-10-13T04:04:43.435Z,5.95
2022-10-13T04:07:11.273Z,5.72
2022-10-13T04:09:39.010Z,6.15
2022-10-13T04:12:07.266Z,6.40
2022-10-13T04:14:35.257Z,6.68
2022-10-13T04:17:04.331Z,6.00
2022-10-13T04:19:32.107Z,6.53
2022-10-13T04:21:59.866Z,4.82
2022-10-13T04:24:27.612Z,5.97
2022-10-13T04:26:55.398Z,6.00
2022-10-13T04:29:25.095Z,5.40
2022-10-13T04:31:52.905Z,5.53
2022-10-13T04:34:22.002Z,6.32
2022-10-13T04:36:51.388Z,5.53
2022-10-13T04:39:19.311Z,5.53
2022-10-13T04:41:47.033Z,5.32
2022-10-13T04:44:14.859Z,5.40
2022-10-13T04:46:43.014Z,5.47
2022-10-13T04:49:10.780Z,5.15
2022-10-13T04:51:39.897Z,5.72
2022-10-13T04:54:07.686Z,5.57
2022-10-13T04:56:35.629Z,5.53
2022-10-13T04:59:05.795Z,5.20
2022-10-13T05:01:35.990Z,5.38
2022-10-13T05:04:05.840Z,6.32
2022-10-13T05:06:48.632Z,5.18
2022-10-13T05:09:25.873Z,5.20
2022-10-13T05:11:54.826Z,5.15
2022-10-13T05:14:22.644Z,5.05
2022-10-13T05:16:50.469Z,5.60
2022-10-13T05:19:18.275Z,5.47
2022-10-13T05:21:46.034Z,5.80
2022-10-13T05:24:15.728Z,4.72
2022-10-13T05:26:44.815Z,5.15
2022-10-13T05:29:12.621Z,6.13
2022-10-13T05:31:42.293Z,5.47
2022-10-13T05:34:10.386Z,5.05
2022-10-13T05:36:38.153Z,5.32
2022-10-13T05:39:08.400Z,5.45
2022-10-13T05:41:36.251Z,5.72
2022-10-13T05:44:09.279Z,4.57
2022-10-13T05:46:37.627Z,5.13
2022-10-13T05:49:05.677Z,5.72
2022-10-13T05:51:37.701Z,5.20
2022-10-13T05:54:11.274Z,5.07
2022-10-13T05:56:46.818Z,5.03
2022-10-13T05:59:24.590Z,4.88
2022-10-13T06:01:55.383Z,5.15
2022-10-13T06:04:30.706Z,4.90
2022-10-13T06:06:58.633Z,4.78
2022-10-13T06:09:28.382Z,4.68
2022-10-13T06:11:56.135Z,4.55
2022-10-13T06:14:25.209Z,5.10
2022-10-13T06:16:52.975Z,4.80
2022-10-13T06:19:20.722Z,5.20
2022-10-13T06:21:48.569Z,4.90
2022-10-13T06:24:16.389Z,5.18
2022-10-13T06:26:44.211Z,5.03
2022-10-13T06:29:12.060Z,5.28
2022-10-13T06:31:41.245Z,4.88
2022-10-13T06:34:09.042Z,4.45
2022-10-13T06:36:36.815Z,4.53
2022-10-13T06:39:04.779Z,5.18
2022-10-13T06:41:32.517Z,4.95
2022-10-13T06:44:00.254Z,5.03
2022-10-13T06:46:28.137Z,4.75
2022-10-13T06:48:57.214Z,5.05
2022-10-13T06:51:25.318Z,4.78
2022-10-13T06:53:53.066Z,4.65
2022-10-13T06:56:20.824Z,4.78
2022-10-13T06:58:48.935Z,4.72
2022-10-13T07:01:16.956Z,5.15
2022-10-13T07:03:44.671Z,4.90
2022-10-13T07:06:13.811Z,4.93
2022-10-13T07:08:41.544Z,4.82
2022-10-13T07:11:15.872Z,4.53
2022-10-13T07:13:46.856Z,4.38
2022-10-13T07:16:16.095Z,4.57
2022-10-13T07:18:43.960Z,4.53
2022-10-13T07:21:13.117Z,4.15
2022-10-13T07:23:41.163Z,4.88
2022-10-13T07:26:10.742Z,4.47
2022-10-13T07:28:39.596Z,4.07
2022-10-13T07:31:13.579Z,4.80
2022-10-13T07:33:42.870Z,4.32
2022-10-13T07:36:11.696Z,4.43
2022-10-13T07:38:41.382Z,4.70
2022-10-13T07:41:11.701Z,4.45
2022-10-13T07:43:40.491Z,4.57
2022-10-13T07:46:09.268Z,4.15
2022-10-13T07:48:37.589Z,4.28
2022-10-13T07:51:08.129Z,5.78
2022-10-13T07:53:36.282Z,6.28
2022-10-13T07:56:11.536Z,6.10
2022-10-13T07:58:41.291Z,6.18
2022-10-13T08:01:10.443Z,5.85
2022-10-13T08:03:40.953Z,5.75
2022-10-13T08:06:11.526Z,5.82
2022-10-13T08:08:40.319Z,6.13
2022-10-13T08:11:16.465Z,5.03
2022-10-13T08:13:48.798Z,4.85
2022-10-13T08:16:16.628Z,3.92
2022-10-13T08:18:44.525Z,3.70
2022-10-13T08:21:45.710Z,3.72
2022-10-13T08:24:06.152Z,3.28
2022-10-13T08:26:35.308Z,2.60
2022-10-13T08:29:20.355Z,2.60
2022-10-13T08:34:23.637Z,2.45
2022-10-13T08:36:53.510Z,2.60
2022-10-13T08:39:22.016Z,2.35
2022-10-13T08:41:52.265Z,2.08
2022-10-13T08:45:10.932Z,2.10
2022-10-13T08:47:30.086Z,2.15
2022-10-13T08:50:02.261Z,2.17
2022-10-13T08:52:46.085Z,2.25
2022-10-13T08:55:24.700Z,1.92
2022-10-13T08:57:54.416Z,2.05
2022-10-13T09:00:22.347Z,2.20
2022-10-13T09:02:51.329Z,2.10
2022-10-13T09:05:33.166Z,2.35
2022-10-13T09:08:01.062Z,1.90
2022-10-13T09:10:28.834Z,2.25
2022-10-13T09:13:01.010Z,2.10
2022-10-13T09:15:28.800Z,1.92
2022-10-13T09:18:12.590Z,2.17
2022-10-13T09:20:42.064Z,1.83
2022-10-13T09:23:21.776Z,2.35
2022-10-13T09:25:52.528Z,2.33
2022-10-13T09:28:26.718Z,2.10
2022-10-13T09:31:07.248Z,1.88
2022-10-13T09:33:39.020Z,2.08
2022-10-13T09:36:14.317Z,2.10
2022-10-13T09:38:46.210Z,3.50
2022-10-13T09:41:20.644Z,1.95
2022-10-13T09:44:14.900Z,1.83
2022-10-13T09:46:51.481Z,1.90
2022-10-13T09:49:37.680Z,1.92
2022-10-13T09:52:15.882Z,1.98
2022-10-13T09:54:48.981Z,1.75
2022-10-13T09:57:32.019Z,1.77
2022-10-13T10:00:13.898Z,2.28
2022-10-13T10:02:52.324Z,2.20
2022-10-13T10:05:26.779Z,2.28
2022-10-13T10:08:00.016Z,2.00
2022-10-13T10:10:34.887Z,1.90
2022-10-13T10:13:03.463Z,1.70
2022-10-13T10:15:56.824Z,2.00
2022-10-13T10:18:37.613Z,1.67
2022-10-13T10:21:14.898Z,2.20
2022-10-13T10:23:52.438Z,2.15
2022-10-13T10:26:32.341Z,1.95
2022-10-13T10:29:21.060Z,1.80
2022-10-13T10:32:15.792Z,1.90
2022-10-13T10:34:54.289Z,2.20
2022-10-13T10:37:44.444Z,1.83
2022-10-13T10:40:32.231Z,2.27
2022-10-13T10:43:31.870Z,1.92
2022-10-13T10:46:01.233Z,1.92
2022-10-13T10:48:36.896Z,1.80
2022-10-13T10:51:08.164Z,1.63
2022-10-13T10:53:46.012Z,2.03
2022-10-13T10:56:22.466Z,1.70
2022-10-13T10:59:05.281Z,1.73
2022-10-13T11:01:45.458Z,1.85
2022-10-13T11:04:43.940Z,1.55
2022-10-13T11:07:15.883Z,1.60
2022-10-13T11:10:21.213Z,1.70
2022-10-13T11:13:18.022Z,1.70
2022-10-13T11:15:47.800Z,1.77
2022-10-13T11:18:58.927Z,1.90
2022-10-13T11:22:06.535Z,1.40
2022-10-13T11:24:58.285Z,1.63
2022-10-13T11:27:39.027Z,1.60
2022-10-13T11:30:50.923Z,1.77
2022-10-13T11:33:53.665Z,1.38
2022-10-13T11:36:51.140Z,1.58
2022-10-13T11:40:01.940Z,1.83
2022-10-13T11:43:25.913Z,1.38
2022-10-13T11:46:26.635Z,1.70
2022-10-13T11:49:47.398Z,1.80
2022-10-13T11:52:54.585Z,1.52
2022-10-13T11:55:39.802Z,1.42
2022-10-13T11:58:15.380Z,1.08
2022-10-13T12:00:53.278Z,1.58
2022-10-13T12:03:23.845Z,1.83
2022-10-13T12:05:52.397Z,1.40
2022-10-13T12:08:22.335Z,1.65
2022-10-13T12:10:57.241Z,1.40
2022-10-13T12:13:28.231Z,1.58
2022-10-13T12:18:34.675Z,1.55
2022-10-13T12:21:10.095Z,1.42
2022-10-13T12:23:39.822Z,1.88
2022-10-13T12:26:07.804Z,1.77
2022-10-13T12:28:51.487Z,1.50
2022-10-13T12:31:23.437Z,1.75
2022-10-13T12:33:56.791Z,1.60
2022-10-13T12:36:30.911Z,1.40
2022-10-13T12:39:06.013Z,1.60
2022-10-13T12:41:37.649Z,1.70
2022-10-13T12:44:08.515Z,1.50
2022-10-13T12:49:13.713Z,1.20
2022-10-13T12:51:44.119Z,1.40
2022-10-13T12:54:22.857Z,1.30
2022-10-13T12:56:56.356Z,2.03
2022-10-13T12:59:26.953Z,1.70
2022-10-13T13:02:00.150Z,1.75
2022-10-13T13:04:44.323Z,2.15
2022-10-13T13:07:33.700Z,1.60
2022-10-13T13:10:16.107Z,1.55
2022-10-13T13:12:45.122Z,1.30
2022-10-13T13:15:36.823Z,1.48
2022-10-13T13:18:30.137Z,1.70
2022-10-13T13:20:58.175Z,1.40
2022-10-13T13:23:33.189Z,1.50
2022-10-13T13:26:07.992Z,1.40
2022-10-13T13:28:35.834Z,1.80
2022-10-13T13:31:03.873Z,1.98
2022-10-13T13:33:31.575Z,1.70
2022-10-13T13:35:59.458Z,2.50
2022-10-13T13:38:27.302Z,2.28
2022-10-13T13:40:55.083Z,2.00
2022-10-13T13:43:24.166Z,1.80
2022-10-13T13:45:51.988Z,1.65
2022-10-13T13:48:19.699Z,1.80
2022-10-13T13:50:47.475Z,3.40
2022-10-13T13:53:15.188Z,2.00
2022-10-13T13:55:45.478Z,1.95
2022-10-13T13:58:13.203Z,2.15
2022-10-13T14:00:42.550Z,1.85
2022-10-13T14:03:10.290Z,2.03
2022-10-13T14:05:40.031Z,1.70
2022-10-13T14:08:08.945Z,1.80
2022-10-13T14:10:36.851Z,2.10
2022-10-13T14:13:05.101Z,1.90
2022-10-13T14:15:32.907Z,1.83
2022-10-13T14:18:02.021Z,1.95
2022-10-13T14:20:29.737Z,1.40
2022-10-13T14:22:57.479Z,1.75
2022-10-13T14:25:25.390Z,2.28
2022-10-13T14:27:53.199Z,1.98
2022-10-13T14:30:21.012Z,1.77
2022-10-13T14:32:48.780Z,1.50
2022-10-13T14:35:17.984Z,1.83
2022-10-13T14:37:45.741Z,1.52
2022-10-13T14:40:13.505Z,1.88
2022-10-13T14:42:42.496Z,1.85
2022-10-13T14:45:13.024Z,1.77
2022-10-13T14:47:40.789Z,2.15
2022-10-13T14:50:09.670Z,1.45
2022-10-13T14:52:38.767Z,1.60
2022-10-13T14:55:07.278Z,1.48
2022-10-13T14:57:35.072Z,1.60
2022-10-13T15:00:03.103Z,1.40
2022-10-13T15:02:31.134Z,1.50
2022-10-13T15:04:58.868Z,1.95
2022-10-13T15:07:26.666Z,1.85
2022-10-13T15:10:11.232Z,1.75
2022-10-13T15:12:39.164Z,1.88
2022-10-13T15:15:07.749Z,1.65
2022-10-13T15:17:36.923Z,1.95
2022-10-13T15:20:05.981Z,1.33
2022-10-13T15:22:33.751Z,1.52
2022-10-13T15:25:04.409Z,1.58
2022-10-13T15:27:32.158Z,1.63
2022-10-13T15:30:00.005Z,1.40
2022-10-13T15:32:28.021Z,1.67
2022-10-13T15:34:55.889Z,1.80
2022-10-13T15:37:23.675Z,1.55
2022-10-13T15:39:56.849Z,1.58
2022-10-13T15:42:26.725Z,1.65
2022-10-13T15:45:09.288Z,1.80
2022-10-13T15:47:38.217Z,1.50
2022-10-13T15:50:06.931Z,1.30
2022-10-13T15:52:39.790Z,1.70
2022-10-13T15:55:08.838Z,1.65
2022-10-13T15:57:38.109Z,1.60
2022-10-13T16:00:08.716Z,1.40
2022-10-13T16:02:36.427Z,1.52
2022-10-13T16:05:05.367Z,1.40
2022-10-13T16:07:33.439Z,1.80
2022-10-13T16:10:02.127Z,1.40
2022-10-13T16:12:30.350Z,1.40
2022-10-13T16:14:59.425Z,1.38
2022-10-13T16:17:27.213Z,1.60
2022-10-13T16:19:55.043Z,1.42
2022-10-13T16:22:23.372Z,1.50
2022-10-13T16:24:51.344Z,1.38
2022-10-13T16:27:19.335Z,2.13
2022-10-13T16:29:47.032Z,1.50
2022-10-13T16:32:16.431Z,1.52
2022-10-13T16:34:44.213Z,2.08
2022-10-13T16:37:12.084Z,2.95
2022-10-13T16:39:43.153Z,2.35
2022-10-13T16:42:12.458Z,2.63
2022-10-13T16:44:40.720Z,3.55
2022-10-13T16:47:08.485Z,3.42
2022-10-13T16:49:37.566Z,3.75
2022-10-13T16:52:05.425Z,2.80
2022-10-13T16:54:33.574Z,2.97
2022-10-13T16:57:01.393Z,3.17
2022-10-13T16:59:29.713Z,3.85
2022-10-13T17:01:59.260Z,3.55
2022-10-13T17:04:27.202Z,3.22
2022-10-13T17:06:56.415Z,3.15
2022-10-13T17:09:24.165Z,3.33
2022-10-13T17:11:51.932Z,2.80
2022-10-13T17:14:20.041Z,3.47
2022-10-13T17:16:47.810Z,2.92
2022-10-13T17:19:15.542Z,3.10
2022-10-13T17:21:44.456Z,2.75
2022-10-13T17:24:13.740Z,2.70
2022-10-13T17:26:41.478Z,3.00
2022-10-13T17:29:09.364Z,3.25
2022-10-13T17:31:37.264Z,2.83
2022-10-13T17:34:06.100Z,3.03
2022-10-13T17:36:34.345Z,2.60
2022-10-13T17:39:06.491Z,3.22
2022-10-13T17:41:36.264Z,2.92
2022-10-13T17:44:04.149Z,3.05
2022-10-13T17:46:38.473Z,3.08
2022-10-13T17:49:08.230Z,2.97
2022-10-13T17:51:36.293Z,2.65
2022-10-13T17:54:04.880Z,2.92
2022-10-13T17:56:32.746Z,2.70
2022-10-13T17:59:02.279Z,2.78
2022-10-13T18:01:34.897Z,3.00
2022-10-13T18:04:08.807Z,3.35
2022-10-13T18:06:40.584Z,2.53
2022-10-13T18:09:12.101Z,3.05
2022-10-13T18:11:42.498Z,2.75
2022-10-13T18:14:15.273Z,3.25
2022-10-13T18:16:43.661Z,3.47
2022-10-13T18:19:11.644Z,3.42
2022-10-13T18:21:39.475Z,3.85
2022-10-13T18:24:08.411Z,3.90
2022-10-13T18:26:36.221Z,2.70
2022-10-13T18:29:05.729Z,3.00
2022-10-13T18:31:37.141Z,3.58
2022-10-13T18:34:07.800Z,3.15
2022-10-13T18:36:38.525Z,3.58
2022-10-13T18:39:08.957Z,3.53
2022-10-13T18:41:38.105Z,3.15
2022-10-13T18:44:06.808Z,3.22
2022-10-13T18:46:37.961Z,3.42
2022-10-13T18:49:06.262Z,3.00
2022-10-13T18:51:36.194Z,3.20
2022-10-13T18:54:05.902Z,3.10
2022-10-13T18:56:36.740Z,3.40
2022-10-13T19:01:37.593Z,2.45
2022-10-13T19:04:06.577Z,2.95
2022-10-13T19:06:35.434Z,3.00
2022-10-13T19:09:06.962Z,3.53
2022-10-13T19:11:35.947Z,2.58
2022-10-13T19:14:05.480Z,3.08
2022-10-13T19:16:39.671Z,2.65
2022-10-13T19:19:09.041Z,2.83
2022-10-13T19:21:38.142Z,2.80
2022-10-13T19:24:07.384Z,2.92
2022-10-13T19:26:37.596Z,2.97
2022-10-13T19:29:09.075Z,3.53
2022-10-13T19:31:40.767Z,2.70
2022-10-13T19:34:10.108Z,2.97
2022-10-13T19:36:41.502Z,3.15
2022-10-13T19:39:15.423Z,3.13
2022-10-13T19:41:44.976Z,2.83
2022-10-13T19:44:13.413Z,2.42
2022-10-13T19:46:45.009Z,3.70
2022-10-13T19:49:16.698Z,2.85
2022-10-13T19:51:45.130Z,2.78
2022-10-13T19:54:13.350Z,3.35
2022-10-13T19:56:41.134Z,3.05
2022-10-13T19:59:08.985Z,2.55
2022-10-13T20:01:39.845Z,2.72
2022-10-13T20:06:38.389Z,3.20
2022-10-13T20:09:06.992Z,2.50
2022-10-13T20:11:34.753Z,3.25
2022-10-13T20:14:02.690Z,2.70
2022-10-13T20:16:30.563Z,3.03
2022-10-13T20:19:00.754Z,2.80
2022-10-13T20:21:30.731Z,2.47
2022-10-13T20:23:58.832Z,3.03
2022-10-13T20:26:27.051Z,2.72
2022-10-13T20:28:55.962Z,2.92
2022-10-13T20:31:24.527Z,3.03
2022-10-13T20:33:56.584Z,3.00
2022-10-13T20:36:26.885Z,2.63
2022-10-13T20:38:56.371Z,2.78
2022-10-13T20:41:26.149Z,2.60
2022-10-13T20:43:56.436Z,2.58
2022-10-13T20:46:25.128Z,2.40
2022-10-13T20:49:11.974Z,2.55
2022-10-13T20:51:41.473Z,2.92
2022-10-13T20:54:11.839Z,2.88
2022-10-13T20:56:40.384Z,2.67
2022-10-13T20:59:11.298Z,2.45
2022-10-13T21:04:07.651Z,2.25
2022-10-13T21:06:36.685Z,2.22
2022-10-13T21:09:06.014Z,2.67
2022-10-13T21:11:35.987Z,2.63
2022-10-13T21:14:06.462Z,2.83
2022-10-13T21:16:34.675Z,2.83
2022-10-13T21:19:02.793Z,2.25
2022-10-13T21:21:33.542Z,2.17
2022-10-13T21:24:06.075Z,2.80
2022-10-13T21:26:36.127Z,2.25
2022-10-13T21:29:04.527Z,2.30
2022-10-13T21:31:32.473Z,2.22
2022-10-13T21:34:00.820Z,2.55
2022-10-13T21:36:31.225Z,2.67
2022-10-13T21:39:02.142Z,2.20
2022-10-13T21:44:00.339Z,2.53
2022-10-13T21:46:30.005Z,2.67
2022-10-13T21:49:00.489Z,2.50
2022-10-13T21:51:32.065Z,2.50
2022-10-13T21:54:02.747Z,2.70
2022-10-13T21:56:32.163Z,2.72
2022-10-13T21:59:02.509Z,2.58
2022-10-13T22:01:30.626Z,2.30
2022-10-13T22:04:01.228Z,2.35
2022-10-13T22:06:31.779Z,2.78
2022-10-13T22:09:02.800Z,2.30
2022-10-13T22:14:02.367Z,2.35
2022-10-13T22:16:33.747Z,2.58
2022-10-13T22:19:01.830Z,2.25
2022-10-13T22:21:32.582Z,2.08
2022-10-13T22:24:03.254Z,2.55
2022-10-13T22:26:34.192Z,2.33
2022-10-13T22:31:33.578Z,2.38
2022-10-13T22:34:03.180Z,2.42
2022-10-13T22:36:31.810Z,2.05
2022-10-13T22:39:02.925Z,2.50
2022-10-13T22:41:32.298Z,2.17
2022-10-13T22:44:01.519Z,2.58
2022-10-13T22:46:34.308Z,2.00
2022-10-13T22:49:02.956Z,2.58
2022-10-13T22:51:33.649Z,2.30
2022-10-13T22:54:02.067Z,2.33
2022-10-13T22:56:32.338Z,2.38
2022-10-13T22:59:03.619Z,2.42
2022-10-13T23:01:32.766Z,2.10
2022-10-13T23:04:00.836Z,1.95
2022-10-13T23:06:32.475Z,2.50
2022-10-13T23:09:02.270Z,2.28
2022-10-13T23:11:30.493Z,2.13
2022-10-13T23:13:58.437Z,2.55
2022-10-13T23:16:28.425Z,2.17
2022-10-13T23:18:57.605Z,2.33
2022-10-13T23:21:29.162Z,1.90
2022-10-13T23:23:58.605Z,2.05
2022-10-13T23:26:27.325Z,2.13
2022-10-13T23:28:56.448Z,2.05
2022-10-13T23:31:24.582Z,2.05
2022-10-13T23:33:52.786Z,2.30
2022-10-13T23:36:25.443Z,2.05
2022-10-13T23:38:56.399Z,2.50
2022-10-13T23:43:52.221Z,1.92
2022-10-13T23:46:20.538Z,2.05
2022-10-13T23:48:48.411Z,2.22
2022-10-13T23:51:19.453Z,2.22
2022-10-13T23:53:48.796Z,2.15
2022-10-13T23:56:16.918Z,2.25
2022-10-13T23:58:45.641Z,2.13
